Terminal Aerodrome Forecast
Issued by NWS Portland, ME

Home | Current Version | Previous Version | Text Only | Print | Product List | Glossary On
Versions: 1 2 3 4 5 6 7 8 9 10 11 12 13 14 15 16 17 18 19
000
FTUS41 KGYX 071201 AAA
TAFCON
TAF AMD
KCON 071201Z 0712/0812 16005KT P6SM SCT020 BKN080
      TEMPO 0712/0715 3SM BR OVC030
     FM071600 16007KT P6SM -SHRA OVC035
     FM080900 19004KT 1 1/2SM BR OVC015=

USA.gov is the U.S. government's official web portal to all federal, state and local government web resources and services.